Arctic Village, Alaska
Current Conditions -  °F | °C
As of 9:16 AM on Friday 31 Oct 2014 (Local Time) from PFYU Reporting Station
Broken Clouds Broken Clouds  
Wind Chill:   Ceiling: 2100
Heat Index: 18°   Visibility: 3mi
Dew Point: 10°   Wind: 15mph
Humidity: 73%   Direction: 50°NE
Pressure: 29.59"   Gusts: 21mph
Location:  68.13°N, 145.54°W
Report Text: PFYU 311716Z 05013G18KT 3SM BKN021 M08/M12 A2959 RMK AO1 WX;-SN BR
Loading
Personal Weather Stations






























Interactive Weather Map
Tropical Storm Tracking
New forecast layout! Learn more

10-Day Weather Forecast

Advertisements
Track Severe Weather on mobile